createdAt,value
2022-11-02T00:01:01.544Z,1.30
2022-11-02T00:03:28.713Z,1.77
2022-11-02T00:05:55.856Z,1.73
2022-11-02T00:08:22.980Z,1.90
2022-11-02T00:10:50.433Z,1.77
2022-11-02T00:13:20.229Z,1.43
2022-11-02T00:15:47.872Z,1.70
2022-11-02T00:18:15.495Z,2.53
2022-11-02T00:20:43.333Z,2.00
2022-11-02T00:23:13.267Z,1.30
2022-11-02T00:25:44.612Z,1.10
2022-11-02T00:28:12.919Z,1.70
2022-11-02T00:30:40.483Z,1.67
2022-11-02T00:33:07.740Z,1.67
2022-11-02T00:35:35.648Z,1.67
2022-11-02T00:38:04.685Z,1.77
2022-11-02T00:40:32.042Z,1.33
2022-11-02T00:42:59.189Z,2.10
2022-11-02T00:45:26.695Z,1.60
2022-11-02T00:47:54.028Z,1.33
2022-11-02T00:50:21.912Z,1.70
2022-11-02T00:52:49.169Z,1.83
2022-11-02T00:55:17.979Z,1.73
2022-11-02T00:57:45.443Z,1.83
2022-11-02T01:00:14.098Z,1.30
2022-11-02T01:02:42.628Z,1.97
2022-11-02T01:05:11.174Z,1.57
2022-11-02T01:07:39.081Z,1.87
2022-11-02T01:10:07.668Z,1.80
2022-11-02T01:12:37.668Z,1.40
2022-11-02T01:15:07.065Z,1.77
2022-11-02T01:17:34.613Z,1.80
2022-11-02T01:20:06.120Z,1.53
2022-11-02T01:22:33.255Z,1.10
2022-11-02T01:25:00.446Z,1.50
2022-11-02T01:27:27.688Z,1.87
2022-11-02T01:29:55.255Z,2.07
2022-11-02T01:32:22.450Z,1.73
2022-11-02T01:34:49.641Z,1.40
2022-11-02T01:37:16.857Z,1.40
2022-11-02T01:39:44.085Z,2.00
2022-11-02T01:42:20.404Z,1.30
2022-11-02T01:44:47.578Z,2.17
2022-11-02T01:47:31.456Z,3.10
2022-11-02T01:50:07.937Z,2.07
2022-11-02T01:52:38.528Z,1.80
2022-11-02T01:55:30.088Z,2.03
2022-11-02T01:58:09.591Z,2.13
2022-11-02T02:00:38.548Z,1.70
2022-11-02T02:03:07.959Z,1.70
2022-11-02T02:05:41.900Z,1.83
2022-11-02T02:08:11.942Z,2.60
2022-11-02T02:10:39.081Z,1.87
2022-11-02T02:13:07.463Z,1.50
2022-11-02T02:16:08.013Z,1.83
2022-11-02T02:18:53.883Z,1.30
2022-11-02T02:22:02.724Z,1.60
2022-11-02T02:24:51.699Z,1.30
2022-11-02T02:27:29.878Z,1.30
2022-11-02T02:30:10.276Z,1.70
2022-11-02T02:32:47.400Z,1.83
2022-11-02T02:35:33.366Z,1.40
2022-11-02T02:38:03.859Z,1.60
2022-11-02T02:40:45.642Z,1.70
2022-11-02T02:43:18.993Z,1.97
2022-11-02T02:45:54.758Z,1.37
2022-11-02T02:48:24.607Z,1.70
2022-11-02T02:50:57.651Z,1.97
2022-11-02T02:53:35.926Z,1.90
2022-11-02T02:56:04.871Z,1.10
2022-11-02T02:58:50.736Z,1.43
2022-11-02T03:01:18.788Z,1.90
2022-11-02T03:03:47.300Z,1.27
2022-11-02T03:06:25.972Z,1.20
2022-11-02T03:09:09.709Z,1.70
2022-11-02T03:12:06.536Z,1.77
2022-11-02T03:15:00.534Z,1.70
2022-11-02T03:17:40.357Z,1.50
2022-11-02T03:20:25.848Z,1.90
2022-11-02T03:23:14.506Z,2.07
2022-11-02T03:26:06.979Z,1.90
2022-11-02T03:28:52.712Z,1.80
2022-11-02T03:31:43.066Z,1.77
2022-11-02T03:34:20.940Z,1.63
2022-11-02T03:39:48.276Z,1.87
2022-11-02T03:42:23.601Z,1.77
2022-11-02T03:45:05.124Z,1.57
2022-11-02T03:47:33.953Z,1.50
2022-11-02T03:50:08.190Z,1.67
2022-11-02T03:53:06.190Z,1.50
2022-11-02T03:55:37.587Z,2.17
2022-11-02T03:58:05.319Z,1.60
2022-11-02T04:00:35.852Z,1.73
2022-11-02T04:03:10.048Z,2.83
2022-11-02T04:05:42.225Z,1.43
2022-11-02T04:08:23.645Z,1.60
2022-11-02T04:11:13.348Z,1.30
2022-11-02T04:14:02.169Z,1.90
2022-11-02T04:16:34.191Z,2.13
2022-11-02T04:19:23.681Z,2.17
2022-11-02T04:22:11.420Z,1.57
2022-11-02T04:25:00.554Z,1.80
2022-11-02T04:27:29.015Z,1.40
2022-11-02T04:29:57.989Z,1.97
2022-11-02T04:32:46.926Z,1.40
2022-11-02T04:35:17.253Z,1.80
2022-11-02T04:38:04.976Z,1.73
2022-11-02T04:40:36.124Z,1.93
2022-11-02T04:43:05.344Z,1.70
2022-11-02T04:45:34.055Z,2.53
2022-11-02T04:48:03.424Z,1.70
2022-11-02T04:50:31.731Z,1.73
2022-11-02T04:53:01.920Z,1.80
2022-11-02T04:55:31.296Z,1.80
2022-11-02T04:57:59.446Z,1.33
2022-11-02T05:00:27.402Z,1.57
2022-11-02T05:02:55.309Z,1.80
2022-11-02T05:05:24.318Z,1.20
2022-11-02T05:07:54.050Z,2.43
2022-11-02T05:10:21.351Z,1.73
2022-11-02T05:12:57.292Z,2.07
2022-11-02T05:15:25.623Z,1.97
2022-11-02T05:17:52.861Z,2.23
2022-11-02T05:20:20.697Z,2.00
2022-11-02T05:22:47.884Z,2.17
2022-11-02T05:25:17.017Z,1.63
2022-11-02T05:27:44.177Z,1.53
2022-11-02T05:30:12.648Z,1.60
2022-11-02T05:32:41.145Z,2.77
2022-11-02T05:35:09.117Z,1.73
2022-11-02T05:37:37.008Z,2.20
2022-11-02T05:40:05.237Z,1.70
2022-11-02T05:42:33.575Z,1.73
2022-11-02T05:45:00.873Z,2.00
2022-11-02T05:47:28.009Z,2.30
2022-11-02T05:49:55.120Z,1.90
2022-11-02T05:52:22.817Z,1.50
2022-11-02T05:54:49.955Z,1.50
2022-11-02T05:57:18.357Z,1.73
2022-11-02T05:59:48.383Z,2.20
2022-11-02T06:02:16.714Z,1.60
2022-11-02T06:04:44.152Z,1.87
2022-11-02T06:07:11.320Z,1.37
2022-11-02T06:09:38.501Z,1.60
2022-11-02T06:12:05.982Z,1.50
2022-11-02T06:14:33.151Z,1.90
2022-11-02T06:17:00.296Z,1.70
2022-11-02T06:19:27.497Z,1.70
2022-11-02T06:21:54.977Z,1.43
2022-11-02T06:24:22.525Z,1.90
2022-11-02T06:26:49.652Z,1.87
2022-11-02T06:29:16.787Z,2.00
2022-11-02T06:31:44.079Z,1.63
2022-11-02T06:34:11.213Z,2.03
2022-11-02T06:36:38.400Z,1.90
2022-11-02T06:39:06.381Z,1.67
2022-11-02T06:41:33.874Z,2.23
2022-11-02T06:44:01.009Z,2.27
2022-11-02T06:46:28.220Z,2.03
2022-11-02T06:48:55.568Z,2.13
2022-11-02T06:51:22.762Z,2.20
2022-11-02T06:53:49.924Z,2.20
2022-11-02T06:56:17.306Z,1.80
2022-11-02T06:58:44.477Z,1.80
2022-11-02T07:01:13.185Z,2.23
2022-11-02T07:03:40.735Z,1.70
2022-11-02T07:06:13.710Z,1.97
2022-11-02T07:08:42.322Z,2.57
2022-11-02T07:11:14.516Z,1.90
2022-11-02T07:13:41.993Z,1.60
2022-11-02T07:16:09.167Z,1.67
2022-11-02T07:18:36.595Z,1.90
2022-11-02T07:21:04.099Z,2.40
2022-11-02T07:23:31.335Z,2.03
2022-11-02T07:26:00.897Z,1.70
2022-11-02T07:28:28.070Z,1.90
2022-11-02T07:30:55.569Z,2.60
2022-11-02T07:33:22.896Z,2.07
2022-11-02T07:35:50.038Z,1.60
2022-11-02T07:38:17.410Z,2.10
2022-11-02T07:40:49.509Z,1.93
2022-11-02T07:43:16.675Z,1.93
2022-11-02T07:46:05.926Z,1.60
2022-11-02T07:48:33.318Z,2.17
2022-11-02T07:51:00.938Z,2.27
2022-11-02T07:53:28.096Z,1.80
2022-11-02T07:55:55.703Z,1.67
2022-11-02T07:58:22.920Z,1.50
2022-11-02T08:00:50.091Z,1.83
2022-11-02T08:03:17.352Z,1.50
2022-11-02T08:05:44.584Z,1.80
2022-11-02T08:08:17.355Z,1.97
2022-11-02T08:10:46.509Z,1.33
2022-11-02T08:13:16.948Z,1.27
2022-11-02T08:15:44.503Z,1.70
2022-11-02T08:18:17.773Z,1.50
2022-11-02T08:20:48.109Z,1.80
2022-11-02T08:23:16.962Z,1.20
2022-11-02T08:25:45.821Z,1.77
2022-11-02T08:28:19.477Z,1.50
2022-11-02T08:30:47.575Z,1.90
2022-11-02T08:33:17.508Z,1.33
2022-11-02T08:35:45.978Z,1.73
2022-11-02T08:38:13.492Z,1.83
2022-11-02T08:40:41.019Z,2.93
2022-11-02T08:43:10.596Z,1.13
2022-11-02T08:46:12.610Z,1.70
2022-11-02T08:48:27.254Z,2.20
2022-11-02T08:50:56.061Z,1.80
2022-11-02T08:53:23.271Z,2.03
2022-11-02T08:55:50.416Z,1.40
2022-11-02T08:58:18.403Z,0.80
2022-11-02T09:00:45.807Z,1.23
2022-11-02T09:03:14.735Z,1.43
2022-11-02T09:05:44.845Z,1.70
2022-11-02T09:08:17.162Z,1.40
2022-11-02T09:10:47.320Z,1.53
2022-11-02T09:13:15.612Z,2.60
2022-11-02T09:15:42.783Z,1.60
2022-11-02T09:18:11.037Z,1.70
2022-11-02T09:20:38.522Z,1.43
2022-11-02T09:23:05.650Z,1.97
2022-11-02T09:25:33.038Z,1.93
2022-11-02T09:28:00.640Z,1.87
2022-11-02T09:30:28.802Z,2.00
2022-11-02T09:33:05.364Z,1.40
2022-11-02T09:35:35.359Z,1.80
2022-11-02T09:38:03.040Z,1.63
2022-11-02T09:41:00.763Z,1.50
2022-11-02T09:44:06.028Z,1.40
2022-11-02T09:46:39.949Z,1.43
2022-11-02T09:49:25.435Z,1.27
2022-11-02T09:51:57.512Z,1.60
2022-11-02T09:54:45.602Z,1.70
2022-11-02T09:57:43.481Z,1.83
2022-11-02T10:00:14.387Z,2.13
2022-11-02T10:02:59.619Z,1.77
2022-11-02T10:05:39.831Z,1.80
2022-11-02T10:08:37.800Z,1.63
2022-11-02T10:11:33.189Z,1.80
2022-11-02T10:14:27.308Z,1.40
2022-11-02T10:16:58.295Z,1.90
2022-11-02T10:19:30.285Z,2.33
2022-11-02T10:21:58.555Z,1.73
2022-11-02T10:24:35.177Z,1.53
2022-11-02T10:27:11.555Z,1.73
2022-11-02T10:29:59.715Z,1.63
2022-11-02T10:32:27.300Z,2.30
2022-11-02T10:34:59.062Z,1.87
2022-11-02T10:37:58.636Z,1.60
2022-11-02T10:40:51.813Z,1.53
2022-11-02T10:43:29.639Z,1.53
2022-11-02T10:46:24.411Z,1.80
2022-11-02T10:49:13.003Z,1.57
2022-11-02T10:51:40.617Z,1.40
2022-11-02T10:54:16.178Z,1.10
2022-11-02T10:56:47.129Z,1.30
2022-11-02T10:59:23.994Z,1.47
2022-11-02T11:01:58.704Z,1.30
2022-11-02T11:04:27.915Z,0.77
2022-11-02T11:06:56.727Z,1.20
2022-11-02T11:09:30.474Z,1.13
2022-11-02T11:12:03.800Z,1.37
2022-11-02T11:20:42.278Z,1.07
2022-11-02T11:23:09.875Z,1.03
2022-11-02T11:25:37.135Z,0.97
2022-11-02T11:28:22.789Z,1.40
2022-11-02T11:31:12.932Z,1.67
2022-11-02T11:33:51.655Z,0.90
2022-11-02T11:36:33.896Z,0.90
2022-11-02T11:39:20.394Z,1.03
2022-11-02T11:41:47.801Z,1.30
2022-11-02T11:44:15.728Z,1.10
2022-11-02T11:46:46.559Z,1.10
2022-11-02T11:50:08.643Z,1.20
2022-11-02T11:52:31.621Z,1.67
2022-11-02T11:55:02.470Z,1.40
2022-11-02T11:57:34.869Z,1.20
2022-11-02T12:00:22.933Z,1.40
2022-11-02T12:03:06.016Z,2.83
2022-11-02T12:05:43.366Z,1.10
2022-11-02T12:08:36.280Z,1.70
2022-11-02T12:11:38.277Z,1.13
2022-11-02T12:14:33.462Z,1.10
2022-11-02T12:17:16.158Z,1.67
2022-11-02T12:19:57.218Z,1.27
2022-11-02T12:23:03.765Z,1.00
2022-11-02T12:25:59.178Z,1.60
2022-11-02T12:28:58.642Z,2.47
2022-11-02T12:31:36.973Z,1.10
2022-11-02T12:34:40.661Z,1.10
2022-11-02T12:37:40.866Z,1.03
2022-11-02T12:40:20.272Z,0.90
2022-11-02T12:43:03.698Z,1.20
2022-11-02T12:45:43.971Z,1.10
2022-11-02T12:48:19.900Z,1.33
2022-11-02T12:50:57.584Z,1.20
2022-11-02T12:53:36.391Z,0.77
2022-11-02T12:56:07.416Z,1.40
2022-11-02T12:58:38.727Z,0.80
2022-11-02T13:01:14.835Z,1.60
2022-11-02T13:03:58.911Z,1.90
2022-11-02T13:06:37.241Z,1.30
2022-11-02T13:09:13.017Z,1.43
2022-11-02T13:11:44.960Z,1.30
2022-11-02T13:14:16.431Z,1.40
2022-11-02T13:16:53.387Z,2.07
2022-11-02T13:19:24.193Z,1.57
2022-11-02T13:21:55.478Z,1.40
2022-11-02T13:24:30.739Z,2.00
2022-11-02T13:29:54.959Z,1.60
2022-11-02T13:32:40.778Z,1.60
2022-11-02T13:35:37.787Z,1.10
2022-11-02T13:38:11.936Z,2.10
2022-11-02T13:40:44.388Z,1.30
2022-11-02T13:43:24.535Z,1.47
2022-11-02T13:46:07.431Z,1.37
2022-11-02T13:48:53.704Z,1.33
2022-11-02T13:51:37.787Z,1.33
2022-11-02T13:54:22.500Z,1.30
2022-11-02T13:56:55.864Z,1.33
2022-11-02T13:59:26.262Z,1.37
2022-11-02T14:01:55.715Z,1.10
2022-11-02T14:04:24.100Z,0.93
2022-11-02T14:07:01.619Z,1.00
2022-11-02T14:09:38.638Z,1.50
2022-11-02T14:12:21.425Z,1.00
2022-11-02T14:15:13.384Z,1.33
2022-11-02T14:17:56.366Z,1.20
2022-11-02T14:20:38.831Z,1.43
2022-11-02T14:23:09.152Z,1.07
2022-11-02T14:25:45.701Z,1.30
2022-11-02T14:28:22.029Z,0.97
2022-11-02T14:30:57.895Z,1.20
2022-11-02T14:33:40.876Z,0.97
2022-11-02T14:36:17.492Z,1.07
2022-11-02T14:38:58.790Z,1.00
2022-11-02T14:41:50.536Z,1.30
2022-11-02T14:45:00.102Z,1.17
2022-11-02T14:47:29.669Z,1.00
2022-11-02T14:50:10.934Z,1.37
2022-11-02T14:52:40.153Z,1.83
2022-11-02T14:55:18.584Z,1.40
2022-11-02T14:58:10.922Z,1.50
2022-11-02T15:00:58.513Z,0.93
2022-11-02T15:03:26.095Z,1.70
2022-11-02T15:06:07.838Z,1.50
2022-11-02T15:08:55.312Z,1.23
2022-11-02T15:11:56.635Z,1.40
2022-11-02T15:14:36.079Z,1.67
2022-11-02T15:17:24.489Z,1.40
2022-11-02T15:19:57.541Z,1.30
2022-11-02T15:22:36.541Z,1.33
2022-11-02T15:25:19.886Z,1.40
2022-11-02T15:27:49.558Z,1.97
2022-11-02T15:30:25.170Z,1.00
2022-11-02T15:33:01.891Z,1.50
2022-11-02T15:35:34.359Z,1.50
2022-11-02T15:38:25.822Z,1.30
2022-11-02T15:41:38.280Z,1.53
2022-11-02T15:44:21.253Z,1.70
2022-11-02T15:47:05.573Z,0.93
2022-11-02T15:49:54.478Z,1.10
2022-11-02T15:53:21.701Z,1.40
2022-11-02T15:56:02.581Z,1.23
2022-11-02T15:58:56.666Z,1.40
2022-11-02T16:01:28.628Z,1.80
2022-11-02T16:04:05.765Z,1.30
2022-11-02T16:06:41.348Z,1.53
2022-11-02T16:09:32.824Z,1.87
2022-11-02T16:12:16.751Z,1.20
2022-11-02T16:15:04.288Z,1.40
2022-11-02T16:17:31.835Z,1.80
2022-11-02T16:20:26.340Z,1.50
2022-11-02T16:23:04.865Z,2.07
2022-11-02T16:25:39.687Z,1.20
2022-11-02T16:28:28.874Z,1.60
2022-11-02T16:30:59.758Z,1.33
2022-11-02T16:33:40.258Z,1.63
2022-11-02T16:36:13.747Z,1.53
2022-11-02T16:38:59.941Z,1.77
2022-11-02T16:41:31.882Z,2.10
2022-11-02T16:44:07.781Z,1.63
2022-11-02T16:47:02.959Z,2.83
2022-11-02T16:49:30.238Z,2.20
2022-11-02T16:52:17.463Z,1.87
2022-11-02T16:54:45.060Z,1.77
2022-11-02T16:57:15.417Z,2.10
2022-11-02T16:59:58.956Z,2.00
2022-11-02T17:02:36.769Z,1.80
2022-11-02T17:05:23.268Z,2.10
2022-11-02T17:08:00.803Z,2.30
2022-11-02T17:10:29.987Z,2.37
2022-11-02T17:12:57.643Z,2.47
2022-11-02T17:15:29.666Z,2.27
2022-11-02T17:18:09.614Z,2.07
2022-11-02T17:20:40.427Z,1.90
2022-11-02T17:23:34.592Z,2.90
2022-11-02T17:26:24.043Z,2.10
2022-11-02T17:29:01.019Z,2.60
2022-11-02T17:31:38.098Z,2.00
2022-11-02T17:34:19.845Z,1.77
2022-11-02T17:36:49.014Z,1.90
2022-11-02T17:39:18.280Z,2.17
2022-11-02T17:42:10.761Z,2.57
2022-11-02T17:44:37.972Z,2.00
2022-11-02T17:47:13.599Z,2.30
2022-11-02T17:49:40.793Z,1.37
2022-11-02T17:52:12.872Z,2.30
2022-11-02T17:54:40.112Z,1.90
2022-11-02T17:57:12.466Z,1.90
2022-11-02T17:59:39.734Z,2.33
2022-11-02T18:02:14.407Z,2.20
2022-11-02T18:07:14.080Z,2.07
2022-11-02T18:09:41.501Z,2.00
2022-11-02T18:12:14.024Z,2.93
2022-11-02T18:14:42.294Z,1.60
2022-11-02T18:17:10.107Z,2.50
2022-11-02T18:19:37.404Z,2.53
2022-11-02T18:22:04.735Z,3.03
2022-11-02T18:24:32.021Z,2.20
2022-11-02T18:26:59.319Z,2.53
2022-11-02T18:29:27.066Z,2.17
2022-11-02T18:31:54.399Z,2.37
2022-11-02T18:34:21.673Z,2.13
2022-11-02T18:36:48.916Z,2.00
2022-11-02T18:39:16.300Z,2.57
2022-11-02T18:41:43.862Z,2.40
2022-11-02T18:44:15.129Z,2.80
2022-11-02T18:46:42.898Z,2.60
2022-11-02T18:49:10.209Z,2.40
2022-11-02T18:51:37.557Z,2.20
2022-11-02T18:54:05.852Z,2.17
2022-11-02T18:56:33.500Z,2.07
2022-11-02T18:59:01.159Z,1.70
2022-11-02T19:01:28.813Z,2.53
2022-11-02T19:03:58.926Z,2.33
2022-11-02T19:06:47.306Z,3.17
2022-11-02T19:09:18.631Z,4.30
2022-11-02T19:12:05.732Z,3.67
2022-11-02T19:14:41.732Z,3.30
2022-11-02T19:17:11.097Z,4.13
2022-11-02T19:19:43.343Z,3.57
2022-11-02T19:22:15.785Z,3.60
2022-11-02T19:24:43.241Z,2.80
2022-11-02T19:27:15.838Z,3.00
2022-11-02T19:29:43.277Z,4.33
2022-11-02T19:32:11.441Z,3.20
2022-11-02T19:34:39.173Z,3.23
2022-11-02T19:37:07.318Z,2.90
2022-11-02T19:39:35.028Z,2.33
2022-11-02T19:42:03.461Z,2.60
2022-11-02T19:44:31.152Z,2.73
2022-11-02T19:46:58.902Z,3.90
2022-11-02T19:49:26.223Z,3.37
2022-11-02T19:51:53.585Z,2.17
2022-11-02T19:54:21.788Z,2.40
2022-11-02T19:56:50.558Z,2.83
2022-11-02T19:59:18.081Z,3.43
2022-11-02T20:01:47.974Z,2.50
2022-11-02T20:04:15.260Z,3.60
2022-11-02T20:06:43.831Z,3.80
2022-11-02T20:09:19.057Z,3.87
2022-11-02T20:11:47.460Z,3.73
2022-11-02T20:14:16.584Z,3.80
2022-11-02T20:16:45.281Z,2.77
2022-11-02T20:19:17.556Z,3.40
2022-11-02T20:21:44.906Z,3.23
2022-11-02T20:24:12.349Z,2.60
2022-11-02T20:26:41.153Z,2.90
2022-11-02T20:29:12.193Z,2.77
2022-11-02T20:31:44.065Z,2.97
2022-11-02T20:34:12.843Z,2.90
2022-11-02T20:36:40.120Z,2.60
2022-11-02T20:39:07.927Z,2.53
2022-11-02T20:41:35.949Z,2.83
2022-11-02T20:44:03.878Z,2.60
2022-11-02T20:46:41.610Z,2.67
2022-11-02T20:51:58.137Z,3.30
2022-11-02T20:54:29.256Z,2.40
2022-11-02T20:56:56.845Z,2.13
2022-11-02T20:59:24.189Z,1.90
2022-11-02T21:01:51.678Z,2.20
2022-11-02T21:04:21.213Z,2.07
2022-11-02T21:06:50.124Z,2.47
2022-11-02T21:09:18.389Z,2.30
2022-11-02T21:12:04.347Z,2.70
2022-11-02T21:14:31.796Z,2.70
2022-11-02T21:16:59.157Z,2.60
2022-11-02T21:19:26.927Z,2.60
2022-11-02T21:21:59.422Z,2.60
2022-11-02T21:24:28.616Z,2.63
2022-11-02T21:26:56.159Z,2.73
2022-11-02T21:29:24.362Z,2.77
2022-11-02T21:31:51.617Z,2.10
2022-11-02T21:34:19.070Z,2.10
2022-11-02T21:36:47.409Z,4.17
2022-11-02T21:39:14.657Z,2.40
2022-11-02T21:41:42.131Z,2.40
2022-11-02T21:44:09.475Z,2.63
2022-11-02T21:46:36.673Z,2.53
2022-11-02T21:49:04.089Z,2.00
2022-11-02T21:51:31.340Z,2.27
2022-11-02T21:53:58.471Z,2.80
2022-11-02T21:56:27.295Z,2.57
2022-11-02T21:58:55.798Z,2.10
2022-11-02T22:01:44.713Z,2.40
2022-11-02T22:04:21.164Z,2.70
2022-11-02T22:06:49.425Z,3.17
2022-11-02T22:09:16.940Z,2.37
2022-11-02T22:11:44.835Z,2.63
2022-11-02T22:14:12.710Z,2.60
2022-11-02T22:16:42.138Z,2.80
2022-11-02T22:19:11.984Z,3.30
2022-11-02T22:21:42.266Z,3.63
2022-11-02T22:24:10.558Z,3.23
2022-11-02T22:26:38.665Z,3.50
2022-11-02T22:29:06.613Z,3.00
2022-11-02T22:31:36.667Z,3.37
2022-11-02T22:34:05.378Z,2.70
2022-11-02T22:36:34.188Z,2.60
2022-11-02T22:39:04.140Z,2.80
2022-11-02T22:41:35.586Z,2.40
2022-11-02T22:44:05.161Z,3.10
2022-11-02T22:46:35.121Z,2.60
2022-11-02T22:49:04.489Z,2.70
2022-11-02T22:51:35.115Z,2.17
2022-11-02T22:54:05.145Z,2.90
2022-11-02T22:56:32.877Z,2.90
2022-11-02T22:59:01.329Z,3.20
2022-11-02T23:01:29.996Z,3.83
2022-11-02T23:03:57.728Z,2.60
2022-11-02T23:06:25.860Z,2.60
2022-11-02T23:08:57.713Z,3.17
2022-11-02T23:11:29.287Z,2.00
2022-11-02T23:14:00.739Z,2.80
2022-11-02T23:16:36.816Z,2.43
2022-11-02T23:19:25.033Z,2.90
2022-11-02T23:22:13.887Z,2.63
2022-11-02T23:25:01.791Z,2.77
2022-11-02T23:27:29.981Z,2.17
2022-11-02T23:30:15.868Z,2.60
2022-11-02T23:32:43.079Z,2.40
2022-11-02T23:35:29.442Z,2.80
2022-11-02T23:38:04.833Z,2.13
2022-11-02T23:40:32.548Z,2.27
2022-11-02T23:42:59.742Z,2.80
2022-11-02T23:45:26.902Z,2.23
2022-11-02T23:47:56.831Z,2.40
2022-11-02T23:50:46.150Z,1.90
2022-11-02T23:53:33.621Z,2.27
2022-11-02T23:56:20.870Z,2.70
2022-11-02T23:58:48.900Z,2.30
